sensor_id;sensor_type;location;lat;lon;timestamp;P1;durP1;ratioP1;P2;durP2;ratioP2
17763;SDS011;22245;52.832;13.816;2023-05-10T00:00:26;8.77;;;4.57;;
17763;SDS011;22245;52.832;13.816;2023-05-10T00:03:49;6.93;;;4.55;;
17763;SDS011;22245;52.832;13.816;2023-05-10T00:07:11;6.10;;;4.50;;
17763;SDS011;22245;52.832;13.816;2023-05-10T00:10:33;10.02;;;5.38;;
17763;SDS011;22245;52.832;13.816;2023-05-10T00:13:54;7.65;;;5.05;;
17763;SDS011;22245;52.832;13.816;2023-05-10T00:17:16;13.07;;;4.95;;
17763;SDS011;22245;52.832;13.816;2023-05-10T00:20:38;6.88;;;4.35;;
17763;SDS011;22245;52.832;13.816;2023-05-10T00:24:00;8.23;;;5.13;;
17763;SDS011;22245;52.832;13.816;2023-05-10T00:27:21;8.73;;;4.78;;
17763;SDS011;22245;52.832;13.816;2023-05-10T00:30:43;7.47;;;4.72;;
17763;SDS011;22245;52.832;13.816;2023-05-10T00:34:05;7.65;;;5.20;;
17763;SDS011;22245;52.832;13.816;2023-05-10T00:37:27;7.50;;;5.00;;
17763;SDS011;22245;52.832;13.816;2023-05-10T00:40:49;7.78;;;5.20;;
17763;SDS011;22245;52.832;13.816;2023-05-10T00:44:18;12.07;;;5.55;;
17763;SDS011;22245;52.832;13.816;2023-05-10T00:47:39;8.55;;;5.40;;
17763;SDS011;22245;52.832;13.816;2023-05-10T00:51:01;10.50;;;5.63;;
17763;SDS011;22245;52.832;13.816;2023-05-10T00:54:25;6.43;;;5.00;;
17763;SDS011;22245;52.832;13.816;2023-05-10T00:57:46;12.30;;;5.82;;
17763;SDS011;22245;52.832;13.816;2023-05-10T01:01:08;8.88;;;6.10;;
17763;SDS011;22245;52.832;13.816;2023-05-10T01:04:31;9.52;;;6.07;;
17763;SDS011;22245;52.832;13.816;2023-05-10T01:07:52;8.63;;;5.53;;
17763;SDS011;22245;52.832;13.816;2023-05-10T01:11:15;7.65;;;5.03;;
17763;SDS011;22245;52.832;13.816;2023-05-10T01:14:37;6.35;;;4.75;;
17763;SDS011;22245;52.832;13.816;2023-05-10T01:17:59;11.35;;;5.53;;
17763;SDS011;22245;52.832;13.816;2023-05-10T01:21:23;9.98;;;6.00;;
17763;SDS011;22245;52.832;13.816;2023-05-10T01:29:07;8.57;;;5.90;;
17763;SDS011;22245;52.832;13.816;2023-05-10T01:32:38;7.53;;;5.10;;
17763;SDS011;22245;52.832;13.816;2023-05-10T01:36:05;9.15;;;5.82;;
17763;SDS011;22245;52.832;13.816;2023-05-10T01:39:32;8.55;;;5.55;;
17763;SDS011;22245;52.832;13.816;2023-05-10T01:43:03;8.98;;;4.97;;
17763;SDS011;22245;52.832;13.816;2023-05-10T01:46:30;7.45;;;5.38;;
17763;SDS011;22245;52.832;13.816;2023-05-10T01:49:58;8.27;;;5.43;;
17763;SDS011;22245;52.832;13.816;2023-05-10T01:53:23;9.18;;;5.55;;
17763;SDS011;22245;52.832;13.816;2023-05-10T01:56:47;8.02;;;5.68;;
17763;SDS011;22245;52.832;13.816;2023-05-10T02:00:13;8.73;;;5.78;;
17763;SDS011;22245;52.832;13.816;2023-05-10T02:03:36;9.05;;;5.35;;
17763;SDS011;22245;52.832;13.816;2023-05-10T02:07:00;6.60;;;5.22;;
17763;SDS011;22245;52.832;13.816;2023-05-10T02:10:23;9.25;;;5.72;;
17763;SDS011;22245;52.832;13.816;2023-05-10T02:13:44;10.52;;;5.57;;
17763;SDS011;22245;52.832;13.816;2023-05-10T02:17:09;8.38;;;5.45;;
17763;SDS011;22245;52.832;13.816;2023-05-10T02:20:32;10.38;;;5.72;;
17763;SDS011;22245;52.832;13.816;2023-05-10T02:23:57;10.95;;;5.85;;
17763;SDS011;22245;52.832;13.816;2023-05-10T02:27:21;8.25;;;5.30;;
17763;SDS011;22245;52.832;13.816;2023-05-10T02:30:45;11.95;;;5.72;;
17763;SDS011;22245;52.832;13.816;2023-05-10T02:34:10;9.70;;;5.95;;
17763;SDS011;22245;52.832;13.816;2023-05-10T02:37:32;10.68;;;5.68;;
17763;SDS011;22245;52.832;13.816;2023-05-10T02:40:57;9.20;;;6.20;;
17763;SDS011;22245;52.832;13.816;2023-05-10T02:44:20;9.07;;;5.85;;
17763;SDS011;22245;52.832;13.816;2023-05-10T02:47:44;7.85;;;5.18;;
17763;SDS011;22245;52.832;13.816;2023-05-10T02:51:06;8.00;;;6.22;;
17763;SDS011;22245;52.832;13.816;2023-05-10T02:54:30;10.18;;;5.82;;
17763;SDS011;22245;52.832;13.816;2023-05-10T02:57:57;10.63;;;5.38;;
17763;SDS011;22245;52.832;13.816;2023-05-10T03:01:21;9.77;;;5.35;;
17763;SDS011;22245;52.832;13.816;2023-05-10T03:04:43;12.35;;;5.78;;
17763;SDS011;22245;52.832;13.816;2023-05-10T03:08:04;7.85;;;5.57;;
17763;SDS011;22245;52.832;13.816;2023-05-10T03:11:29;8.95;;;6.00;;
17763;SDS011;22245;52.832;13.816;2023-05-10T03:15:03;8.88;;;5.75;;
17763;SDS011;22245;52.832;13.816;2023-05-10T03:18:37;10.68;;;6.07;;
17763;SDS011;22245;52.832;13.816;2023-05-10T03:22:06;9.98;;;5.53;;
17763;SDS011;22245;52.832;13.816;2023-05-10T03:25:31;8.35;;;5.35;;
17763;SDS011;22245;52.832;13.816;2023-05-10T03:28:56;8.63;;;6.07;;
17763;SDS011;22245;52.832;13.816;2023-05-10T03:32:21;9.57;;;5.43;;
17763;SDS011;22245;52.832;13.816;2023-05-10T03:35:43;9.07;;;5.45;;
17763;SDS011;22245;52.832;13.816;2023-05-10T03:39:06;8.98;;;5.70;;
17763;SDS011;22245;52.832;13.816;2023-05-10T03:42:29;8.88;;;5.70;;
17763;SDS011;22245;52.832;13.816;2023-05-10T03:45:51;9.02;;;5.78;;
17763;SDS011;22245;52.832;13.816;2023-05-10T03:49:14;10.63;;;5.97;;
17763;SDS011;22245;52.832;13.816;2023-05-10T03:52:36;11.95;;;6.35;;
17763;SDS011;22245;52.832;13.816;2023-05-10T03:55:58;8.02;;;5.45;;
17763;SDS011;22245;52.832;13.816;2023-05-10T03:59:20;11.85;;;5.55;;
17763;SDS011;22245;52.832;13.816;2023-05-10T04:02:43;11.57;;;6.00;;
17763;SDS011;22245;52.832;13.816;2023-05-10T04:06:11;11.40;;;5.47;;
17763;SDS011;22245;52.832;13.816;2023-05-10T04:09:33;8.18;;;5.28;;
17763;SDS011;22245;52.832;13.816;2023-05-10T04:12:54;7.70;;;5.38;;
17763;SDS011;22245;52.832;13.816;2023-05-10T04:16:16;7.43;;;5.50;;
17763;SDS011;22245;52.832;13.816;2023-05-10T04:19:38;11.32;;;5.75;;
17763;SDS011;22245;52.832;13.816;2023-05-10T04:23:01;9.88;;;5.45;;
17763;SDS011;22245;52.832;13.816;2023-05-10T04:26:23;8.07;;;5.60;;
17763;SDS011;22245;52.832;13.816;2023-05-10T04:29:44;9.10;;;5.40;;
17763;SDS011;22245;52.832;13.816;2023-05-10T04:33:06;9.60;;;6.10;;
17763;SDS011;22245;52.832;13.816;2023-05-10T04:36:28;8.05;;;5.35;;
17763;SDS011;22245;52.832;13.816;2023-05-10T04:39:52;10.38;;;5.70;;
17763;SDS011;22245;52.832;13.816;2023-05-10T04:43:13;7.40;;;5.35;;
17763;SDS011;22245;52.832;13.816;2023-05-10T04:46:35;7.20;;;5.57;;
17763;SDS011;22245;52.832;13.816;2023-05-10T04:49:57;9.88;;;5.63;;
17763;SDS011;22245;52.832;13.816;2023-05-10T04:53:19;8.63;;;5.40;;
17763;SDS011;22245;52.832;13.816;2023-05-10T04:56:42;11.00;;;5.95;;
17763;SDS011;22245;52.832;13.816;2023-05-10T05:00:04;11.63;;;6.05;;
17763;SDS011;22245;52.832;13.816;2023-05-10T05:03:26;12.48;;;6.20;;
17763;SDS011;22245;52.832;13.816;2023-05-10T05:06:48;9.20;;;5.93;;
17763;SDS011;22245;52.832;13.816;2023-05-10T05:10:12;9.93;;;5.35;;
17763;SDS011;22245;52.832;13.816;2023-05-10T05:13:36;11.45;;;6.43;;
17763;SDS011;22245;52.832;13.816;2023-05-10T05:16:57;9.23;;;5.93;;
17763;SDS011;22245;52.832;13.816;2023-05-10T05:20:19;8.32;;;5.93;;
17763;SDS011;22245;52.832;13.816;2023-05-10T05:23:41;9.82;;;5.97;;
17763;SDS011;22245;52.832;13.816;2023-05-10T05:27:02;9.63;;;5.82;;
17763;SDS011;22245;52.832;13.816;2023-05-10T05:30:25;11.18;;;6.13;;
17763;SDS011;22245;52.832;13.816;2023-05-10T05:33:47;9.15;;;6.30;;
17763;SDS011;22245;52.832;13.816;2023-05-10T05:37:12;9.60;;;5.75;;
17763;SDS011;22245;52.832;13.816;2023-05-10T05:40:34;7.15;;;5.60;;
17763;SDS011;22245;52.832;13.816;2023-05-10T05:43:55;10.38;;;5.28;;
17763;SDS011;22245;52.832;13.816;2023-05-10T05:47:18;10.10;;;4.97;;
17763;SDS011;22245;52.832;13.816;2023-05-10T05:50:40;8.00;;;4.93;;
17763;SDS011;22245;52.832;13.816;2023-05-10T05:54:01;7.60;;;4.85;;
17763;SDS011;22245;52.832;13.816;2023-05-10T05:57:24;7.90;;;4.53;;
17763;SDS011;22245;52.832;13.816;2023-05-10T06:00:47;7.72;;;4.55;;
17763;SDS011;22245;52.832;13.816;2023-05-10T06:04:10;8.07;;;4.65;;
17763;SDS011;22245;52.832;13.816;2023-05-10T06:07:32;8.02;;;4.72;;
17763;SDS011;22245;52.832;13.816;2023-05-10T06:10:54;6.63;;;4.15;;
17763;SDS011;22245;52.832;13.816;2023-05-10T06:14:15;12.30;;;4.60;;
17763;SDS011;22245;52.832;13.816;2023-05-10T06:17:36;8.55;;;4.68;;
17763;SDS011;22245;52.832;13.816;2023-05-10T06:21:00;8.63;;;4.32;;
17763;SDS011;22245;52.832;13.816;2023-05-10T06:24:21;6.78;;;3.97;;
17763;SDS011;22245;52.832;13.816;2023-05-10T06:27:43;6.13;;;4.80;;
17763;SDS011;22245;52.832;13.816;2023-05-10T06:31:11;9.40;;;4.10;;
17763;SDS011;22245;52.832;13.816;2023-05-10T06:34:32;8.60;;;5.10;;
17763;SDS011;22245;52.832;13.816;2023-05-10T06:37:55;7.70;;;4.20;;
17763;SDS011;22245;52.832;13.816;2023-05-10T06:41:16;10.25;;;4.97;;
17763;SDS011;22245;52.832;13.816;2023-05-10T06:44:38;7.68;;;4.53;;
17763;SDS011;22245;52.832;13.816;2023-05-10T06:47:59;6.78;;;4.53;;
17763;SDS011;22245;52.832;13.816;2023-05-10T06:51:21;8.85;;;3.92;;
17763;SDS011;22245;52.832;13.816;2023-05-10T06:54:44;6.68;;;4.28;;
17763;SDS011;22245;52.832;13.816;2023-05-10T06:58:06;10.35;;;4.28;;
17763;SDS011;22245;52.832;13.816;2023-05-10T07:01:27;6.35;;;3.58;;
17763;SDS011;22245;52.832;13.816;2023-05-10T07:04:49;6.05;;;4.15;;
17763;SDS011;22245;52.832;13.816;2023-05-10T07:08:12;7.72;;;4.78;;
17763;SDS011;22245;52.832;13.816;2023-05-10T07:11:35;6.65;;;3.92;;
17763;SDS011;22245;52.832;13.816;2023-05-10T07:14:57;6.55;;;3.78;;
17763;SDS011;22245;52.832;13.816;2023-05-10T07:18:19;5.38;;;3.55;;
17763;SDS011;22245;52.832;13.816;2023-05-10T07:21:41;9.52;;;4.20;;
17763;SDS011;22245;52.832;13.816;2023-05-10T07:25:03;5.72;;;3.70;;
17763;SDS011;22245;52.832;13.816;2023-05-10T07:28:27;5.13;;;3.40;;
17763;SDS011;22245;52.832;13.816;2023-05-10T07:31:48;5.38;;;3.85;;
17763;SDS011;22245;52.832;13.816;2023-05-10T07:35:10;9.95;;;4.32;;
17763;SDS011;22245;52.832;13.816;2023-05-10T07:38:31;8.43;;;4.25;;
17763;SDS011;22245;52.832;13.816;2023-05-10T07:41:53;4.60;;;3.60;;
17763;SDS011;22245;52.832;13.816;2023-05-10T07:45:17;8.57;;;3.35;;
17763;SDS011;22245;52.832;13.816;2023-05-10T07:48:38;6.68;;;3.42;;
17763;SDS011;22245;52.832;13.816;2023-05-10T07:52:00;7.65;;;3.40;;
17763;SDS011;22245;52.832;13.816;2023-05-10T07:55:21;9.48;;;3.30;;
17763;SDS011;22245;52.832;13.816;2023-05-10T07:58:43;5.32;;;3.35;;
17763;SDS011;22245;52.832;13.816;2023-05-10T08:02:06;5.53;;;3.65;;
17763;SDS011;22245;52.832;13.816;2023-05-10T08:05:27;5.10;;;3.58;;
17763;SDS011;22245;52.832;13.816;2023-05-10T08:08:49;6.65;;;3.42;;
17763;SDS011;22245;52.832;13.816;2023-05-10T08:12:11;5.57;;;3.30;;
17763;SDS011;22245;52.832;13.816;2023-05-10T08:15:33;17.33;;;4.15;;
17763;SDS011;22245;52.832;13.816;2023-05-10T08:18:56;6.22;;;3.17;;
17763;SDS011;22245;52.832;13.816;2023-05-10T08:22:17;5.45;;;3.25;;
17763;SDS011;22245;52.832;13.816;2023-05-10T08:25:39;6.28;;;3.33;;
17763;SDS011;22245;52.832;13.816;2023-05-10T08:29:01;5.07;;;2.92;;
17763;SDS011;22245;52.832;13.816;2023-05-10T08:32:22;4.47;;;2.88;;
17763;SDS011;22245;52.832;13.816;2023-05-10T08:35:45;5.65;;;3.15;;
17763;SDS011;22245;52.832;13.816;2023-05-10T08:39:07;3.97;;;2.92;;
17763;SDS011;22245;52.832;13.816;2023-05-10T08:42:47;4.13;;;3.30;;
17763;SDS011;22245;52.832;13.816;2023-05-10T08:46:14;3.72;;;2.70;;
17763;SDS011;22245;52.832;13.816;2023-05-10T08:49:38;6.70;;;2.85;;
17763;SDS011;22245;52.832;13.816;2023-05-10T08:53:03;3.58;;;2.75;;
17763;SDS011;22245;52.832;13.816;2023-05-10T08:56:26;7.57;;;3.10;;
17763;SDS011;22245;52.832;13.816;2023-05-10T08:59:47;5.35;;;2.60;;
17763;SDS011;22245;52.832;13.816;2023-05-10T09:03:09;5.78;;;2.50;;
17763;SDS011;22245;52.832;13.816;2023-05-10T09:06:31;4.63;;;2.70;;
17763;SDS011;22245;52.832;13.816;2023-05-10T09:09:55;7.07;;;2.88;;
17763;SDS011;22245;52.832;13.816;2023-05-10T09:13:19;2.97;;;2.67;;
17763;SDS011;22245;52.832;13.816;2023-05-10T09:16:41;6.78;;;2.78;;
17763;SDS011;22245;52.832;13.816;2023-05-10T09:20:04;8.50;;;3.03;;
17763;SDS011;22245;52.832;13.816;2023-05-10T09:23:27;3.00;;;2.60;;
17763;SDS011;22245;52.832;13.816;2023-05-10T09:26:53;5.72;;;3.08;;
17763;SDS011;22245;52.832;13.816;2023-05-10T09:30:23;10.40;;;3.47;;
17763;SDS011;22245;52.832;13.816;2023-05-10T09:33:47;4.95;;;2.83;;
17763;SDS011;22245;52.832;13.816;2023-05-10T09:37:09;4.90;;;3.28;;
17763;SDS011;22245;52.832;13.816;2023-05-10T09:40:31;5.47;;;2.90;;
17763;SDS011;22245;52.832;13.816;2023-05-10T09:43:56;5.45;;;2.65;;
17763;SDS011;22245;52.832;13.816;2023-05-10T09:47:17;4.03;;;2.88;;
17763;SDS011;22245;52.832;13.816;2023-05-10T09:50:39;7.93;;;2.72;;
17763;SDS011;22245;52.832;13.816;2023-05-10T09:54:11;4.88;;;3.30;;
17763;SDS011;22245;52.832;13.816;2023-05-10T09:57:33;6.82;;;3.13;;
17763;SDS011;22245;52.832;13.816;2023-05-10T10:00:57;5.13;;;3.17;;
17763;SDS011;22245;52.832;13.816;2023-05-10T10:04:19;4.50;;;2.80;;
17763;SDS011;22245;52.832;13.816;2023-05-10T10:07:41;3.72;;;2.67;;
17763;SDS011;22245;52.832;13.816;2023-05-10T10:11:03;4.10;;;2.67;;
17763;SDS011;22245;52.832;13.816;2023-05-10T10:14:25;5.90;;;2.80;;
17763;SDS011;22245;52.832;13.816;2023-05-10T10:17:49;3.30;;;2.70;;
17763;SDS011;22245;52.832;13.816;2023-05-10T10:21:12;6.03;;;2.80;;
17763;SDS011;22245;52.832;13.816;2023-05-10T10:24:35;5.53;;;3.13;;
17763;SDS011;22245;52.832;13.816;2023-05-10T10:28:00;6.75;;;3.05;;
17763;SDS011;22245;52.832;13.816;2023-05-10T10:31:33;8.88;;;2.88;;
17763;SDS011;22245;52.832;13.816;2023-05-10T10:35:00;5.82;;;2.72;;
17763;SDS011;22245;52.832;13.816;2023-05-10T10:38:23;3.23;;;2.47;;
17763;SDS011;22245;52.832;13.816;2023-05-10T10:41:49;5.22;;;2.67;;
17763;SDS011;22245;52.832;13.816;2023-05-10T10:45:12;8.00;;;2.72;;
17763;SDS011;22245;52.832;13.816;2023-05-10T10:48:34;4.28;;;2.42;;
17763;SDS011;22245;52.832;13.816;2023-05-10T10:52:20;4.32;;;2.65;;
17763;SDS011;22245;52.832;13.816;2023-05-10T10:55:46;4.55;;;2.42;;
17763;SDS011;22245;52.832;13.816;2023-05-10T10:59:08;5.10;;;2.72;;
17763;SDS011;22245;52.832;13.816;2023-05-10T11:02:33;7.57;;;2.90;;
17763;SDS011;22245;52.832;13.816;2023-05-10T11:06:04;6.35;;;3.30;;
17763;SDS011;22245;52.832;13.816;2023-05-10T11:09:27;8.43;;;2.67;;
17763;SDS011;22245;52.832;13.816;2023-05-10T11:12:52;3.22;;;2.40;;
17763;SDS011;22245;52.832;13.816;2023-05-10T11:16:16;3.78;;;2.58;;
17763;SDS011;22245;52.832;13.816;2023-05-10T11:19:57;8.77;;;2.60;;
17763;SDS011;22245;52.832;13.816;2023-05-10T11:23:30;4.28;;;2.90;;
17763;SDS011;22245;52.832;13.816;2023-05-10T11:26:54;5.55;;;3.30;;
17763;SDS011;22245;52.832;13.816;2023-05-10T11:30:15;5.43;;;2.67;;
17763;SDS011;22245;52.832;13.816;2023-05-10T11:33:42;5.75;;;2.58;;
17763;SDS011;22245;52.832;13.816;2023-05-10T11:37:04;5.43;;;2.80;;
17763;SDS011;22245;52.832;13.816;2023-05-10T11:40:26;7.30;;;3.53;;
17763;SDS011;22245;52.832;13.816;2023-05-10T11:43:50;5.60;;;2.75;;
17763;SDS011;22245;52.832;13.816;2023-05-10T11:47:14;3.65;;;2.75;;
17763;SDS011;22245;52.832;13.816;2023-05-10T11:50:35;8.60;;;3.20;;
17763;SDS011;22245;52.832;13.816;2023-05-10T11:53:57;9.57;;;3.13;;
17763;SDS011;22245;52.832;13.816;2023-05-10T11:57:20;7.00;;;2.70;;
17763;SDS011;22245;52.832;13.816;2023-05-10T12:00:47;8.35;;;2.75;;
17763;SDS011;22245;52.832;13.816;2023-05-10T12:04:09;5.82;;;3.10;;
17763;SDS011;22245;52.832;13.816;2023-05-10T12:07:33;6.07;;;2.67;;
17763;SDS011;22245;52.832;13.816;2023-05-10T12:11:03;6.93;;;2.70;;
17763;SDS011;22245;52.832;13.816;2023-05-10T12:14:25;4.47;;;3.25;;
17763;SDS011;22245;52.832;13.816;2023-05-10T12:17:49;4.78;;;2.47;;
17763;SDS011;22245;52.832;13.816;2023-05-10T12:21:12;8.02;;;3.47;;
17763;SDS011;22245;52.832;13.816;2023-05-10T12:24:34;6.30;;;2.80;;
17763;SDS011;22245;52.832;13.816;2023-05-10T12:27:57;5.97;;;2.88;;
17763;SDS011;22245;52.832;13.816;2023-05-10T12:31:20;7.13;;;2.83;;
17763;SDS011;22245;52.832;13.816;2023-05-10T12:34:43;3.83;;;2.38;;
17763;SDS011;22245;52.832;13.816;2023-05-10T12:38:22;6.32;;;2.80;;
17763;SDS011;22245;52.832;13.816;2023-05-10T12:41:46;6.15;;;3.17;;
17763;SDS011;22245;52.832;13.816;2023-05-10T12:45:07;7.43;;;2.72;;
17763;SDS011;22245;52.832;13.816;2023-05-10T12:48:29;6.78;;;2.72;;
17763;SDS011;22245;52.832;13.816;2023-05-10T12:51:53;5.55;;;3.28;;
17763;SDS011;22245;52.832;13.816;2023-05-10T12:55:14;4.60;;;2.60;;
17763;SDS011;22245;52.832;13.816;2023-05-10T12:58:36;6.35;;;2.85;;
17763;SDS011;22245;52.832;13.816;2023-05-10T13:01:58;6.78;;;2.85;;
17763;SDS011;22245;52.832;13.816;2023-05-10T13:05:19;13.82;;;3.20;;
17763;SDS011;22245;52.832;13.816;2023-05-10T13:08:42;8.52;;;2.75;;
17763;SDS011;22245;52.832;13.816;2023-05-10T13:12:04;6.40;;;3.05;;
17763;SDS011;22245;52.832;13.816;2023-05-10T13:15:29;7.50;;;3.13;;
17763;SDS011;22245;52.832;13.816;2023-05-10T13:18:50;6.32;;;3.10;;
17763;SDS011;22245;52.832;13.816;2023-05-10T13:22:12;7.03;;;3.05;;
17763;SDS011;22245;52.832;13.816;2023-05-10T13:25:43;5.03;;;2.95;;
17763;SDS011;22245;52.832;13.816;2023-05-10T13:29:05;4.65;;;2.83;;
17763;SDS011;22245;52.832;13.816;2023-05-10T13:32:27;14.75;;;3.00;;
17763;SDS011;22245;52.832;13.816;2023-05-10T13:35:49;7.68;;;2.88;;
17763;SDS011;22245;52.832;13.816;2023-05-10T13:39:14;6.55;;;2.88;;
17763;SDS011;22245;52.832;13.816;2023-05-10T13:42:37;4.25;;;2.60;;
17763;SDS011;22245;52.832;13.816;2023-05-10T13:45:59;7.30;;;2.95;;
17763;SDS011;22245;52.832;13.816;2023-05-10T13:49:21;8.02;;;3.33;;
17763;SDS011;22245;52.832;13.816;2023-05-10T13:52:42;6.65;;;3.13;;
17763;SDS011;22245;52.832;13.816;2023-05-10T13:56:04;7.10;;;3.30;;
17763;SDS011;22245;52.832;13.816;2023-05-10T13:59:28;3.67;;;2.85;;
17763;SDS011;22245;52.832;13.816;2023-05-10T14:02:51;4.88;;;2.90;;
17763;SDS011;22245;52.832;13.816;2023-05-10T14:06:13;5.22;;;2.75;;
17763;SDS011;22245;52.832;13.816;2023-05-10T14:09:35;4.70;;;3.17;;
17763;SDS011;22245;52.832;13.816;2023-05-10T14:12:57;3.90;;;2.50;;
17763;SDS011;22245;52.832;13.816;2023-05-10T14:16:20;5.18;;;3.05;;
17763;SDS011;22245;52.832;13.816;2023-05-10T14:19:42;4.05;;;3.13;;
17763;SDS011;22245;52.832;13.816;2023-05-10T14:23:04;4.80;;;2.83;;
17763;SDS011;22245;52.832;13.816;2023-05-10T14:26:25;9.77;;;3.08;;
17763;SDS011;22245;52.832;13.816;2023-05-10T14:29:47;6.20;;;2.70;;
17763;SDS011;22245;52.832;13.816;2023-05-10T14:33:10;7.90;;;3.10;;
17763;SDS011;22245;52.832;13.816;2023-05-10T14:36:32;8.07;;;3.00;;
17763;SDS011;22245;52.832;13.816;2023-05-10T14:39:53;8.80;;;3.03;;
17763;SDS011;22245;52.832;13.816;2023-05-10T14:43:15;6.15;;;2.70;;
17763;SDS011;22245;52.832;13.816;2023-05-10T14:46:36;5.18;;;2.85;;
17763;SDS011;22245;52.832;13.816;2023-05-10T14:49:59;6.93;;;3.03;;
17763;SDS011;22245;52.832;13.816;2023-05-10T14:53:21;5.80;;;2.53;;
17763;SDS011;22245;52.832;13.816;2023-05-10T14:56:43;6.38;;;2.92;;
17763;SDS011;22245;52.832;13.816;2023-05-10T15:00:05;5.68;;;2.60;;
17763;SDS011;22245;52.832;13.816;2023-05-10T15:03:28;12.05;;;3.30;;
17763;SDS011;22245;52.832;13.816;2023-05-10T15:06:51;5.68;;;2.65;;
17763;SDS011;22245;52.832;13.816;2023-05-10T15:10:19;4.93;;;2.85;;
17763;SDS011;22245;52.832;13.816;2023-05-10T15:13:40;4.20;;;2.65;;
17763;SDS011;22245;52.832;13.816;2023-05-10T15:17:02;5.13;;;2.60;;
17763;SDS011;22245;52.832;13.816;2023-05-10T15:20:24;3.15;;;2.47;;
17763;SDS011;22245;52.832;13.816;2023-05-10T15:23:47;6.32;;;2.95;;
17763;SDS011;22245;52.832;13.816;2023-05-10T15:27:09;5.60;;;3.30;;
17763;SDS011;22245;52.832;13.816;2023-05-10T15:30:30;7.30;;;2.90;;
17763;SDS011;22245;52.832;13.816;2023-05-10T15:33:52;5.40;;;2.67;;
17763;SDS011;22245;52.832;13.816;2023-05-10T15:37:18;6.40;;;2.72;;
17763;SDS011;22245;52.832;13.816;2023-05-10T15:40:41;4.55;;;2.88;;
17763;SDS011;22245;52.832;13.816;2023-05-10T15:44:03;5.45;;;2.30;;
17763;SDS011;22245;52.832;13.816;2023-05-10T15:47:25;8.60;;;3.30;;
17763;SDS011;22245;52.832;13.816;2023-05-10T15:50:47;3.28;;;2.45;;
17763;SDS011;22245;52.832;13.816;2023-05-10T15:54:09;9.75;;;3.15;;
17763;SDS011;22245;52.832;13.816;2023-05-10T15:57:32;4.22;;;2.85;;
17763;SDS011;22245;52.832;13.816;2023-05-10T16:00:55;3.28;;;2.90;;
17763;SDS011;22245;52.832;13.816;2023-05-10T16:04:18;5.47;;;2.67;;
17763;SDS011;22245;52.832;13.816;2023-05-10T16:07:39;5.38;;;2.67;;
17763;SDS011;22245;52.832;13.816;2023-05-10T16:11:01;5.32;;;3.00;;
17763;SDS011;22245;52.832;13.816;2023-05-10T16:14:24;3.00;;;2.70;;
17763;SDS011;22245;52.832;13.816;2023-05-10T16:17:46;3.30;;;2.70;;
17763;SDS011;22245;52.832;13.816;2023-05-10T16:21:09;5.38;;;2.70;;
17763;SDS011;22245;52.832;13.816;2023-05-10T16:24:30;4.53;;;2.60;;
17763;SDS011;22245;52.832;13.816;2023-05-10T16:27:52;5.22;;;3.08;;
17763;SDS011;22245;52.832;13.816;2023-05-10T16:31:15;2.85;;;2.47;;
17763;SDS011;22245;52.832;13.816;2023-05-10T16:34:39;3.75;;;2.85;;
17763;SDS011;22245;52.832;13.816;2023-05-10T16:38:00;3.13;;;2.80;;
17763;SDS011;22245;52.832;13.816;2023-05-10T16:41:22;4.43;;;2.55;;
17763;SDS011;22245;52.832;13.816;2023-05-10T16:44:45;6.40;;;3.20;;
17763;SDS011;22245;52.832;13.816;2023-05-10T16:48:09;6.88;;;3.00;;
17763;SDS011;22245;52.832;13.816;2023-05-10T16:51:31;4.43;;;2.67;;
17763;SDS011;22245;52.832;13.816;2023-05-10T16:54:53;4.82;;;2.90;;
17763;SDS011;22245;52.832;13.816;2023-05-10T16:58:14;5.82;;;2.85;;
17763;SDS011;22245;52.832;13.816;2023-05-10T17:01:36;4.53;;;2.60;;
17763;SDS011;22245;52.832;13.816;2023-05-10T17:04:59;3.75;;;2.72;;
17763;SDS011;22245;52.832;13.816;2023-05-10T17:08:20;5.78;;;3.00;;
17763;SDS011;22245;52.832;13.816;2023-05-10T17:11:42;4.85;;;3.38;;
17763;SDS011;22245;52.832;13.816;2023-05-10T17:15:04;6.10;;;3.85;;
17763;SDS011;22245;52.832;13.816;2023-05-10T17:18:26;7.32;;;4.22;;
17763;SDS011;22245;52.832;13.816;2023-05-10T17:21:49;4.97;;;3.10;;
17763;SDS011;22245;52.832;13.816;2023-05-10T17:25:10;5.82;;;3.28;;
17763;SDS011;22245;52.832;13.816;2023-05-10T17:28:32;3.10;;;2.80;;
17763;SDS011;22245;52.832;13.816;2023-05-10T17:31:55;4.90;;;3.00;;
17763;SDS011;22245;52.832;13.816;2023-05-10T17:35:17;6.43;;;3.15;;
17763;SDS011;22245;52.832;13.816;2023-05-10T17:38:40;5.38;;;2.78;;
17763;SDS011;22245;52.832;13.816;2023-05-10T17:42:02;4.05;;;2.53;;
17763;SDS011;22245;52.832;13.816;2023-05-10T17:45:24;4.53;;;3.15;;
17763;SDS011;22245;52.832;13.816;2023-05-10T17:48:46;4.93;;;2.95;;
17763;SDS011;22245;52.832;13.816;2023-05-10T17:52:07;4.63;;;2.80;;
17763;SDS011;22245;52.832;13.816;2023-05-10T17:55:30;4.90;;;2.80;;
17763;SDS011;22245;52.832;13.816;2023-05-10T17:58:52;6.65;;;2.90;;
17763;SDS011;22245;52.832;13.816;2023-05-10T18:02:13;4.80;;;2.90;;
17763;SDS011;22245;52.832;13.816;2023-05-10T18:05:36;3.88;;;2.70;;
17763;SDS011;22245;52.832;13.816;2023-05-10T18:08:58;4.18;;;2.92;;
17763;SDS011;22245;52.832;13.816;2023-05-10T18:12:21;11.90;;;3.20;;
17763;SDS011;22245;52.832;13.816;2023-05-10T18:15:43;5.95;;;3.13;;
17763;SDS011;22245;52.832;13.816;2023-05-10T18:19:05;11.38;;;3.00;;
17763;SDS011;22245;52.832;13.816;2023-05-10T18:22:26;4.32;;;2.90;;
17763;SDS011;22245;52.832;13.816;2023-05-10T18:25:48;6.00;;;3.08;;
17763;SDS011;22245;52.832;13.816;2023-05-10T18:29:11;8.20;;;3.00;;
17763;SDS011;22245;52.832;13.816;2023-05-10T18:32:32;7.85;;;2.78;;
17763;SDS011;22245;52.832;13.816;2023-05-10T18:35:54;5.07;;;3.10;;
17763;SDS011;22245;52.832;13.816;2023-05-10T18:39:15;4.25;;;3.13;;
17763;SDS011;22245;52.832;13.816;2023-05-10T18:42:38;5.80;;;3.17;;
17763;SDS011;22245;52.832;13.816;2023-05-10T18:46:02;4.10;;;2.80;;
17763;SDS011;22245;52.832;13.816;2023-05-10T18:49:24;4.40;;;3.10;;
17763;SDS011;22245;52.832;13.816;2023-05-10T18:52:46;3.72;;;2.70;;
17763;SDS011;22245;52.832;13.816;2023-05-10T18:56:08;3.78;;;2.80;;
17763;SDS011;22245;52.832;13.816;2023-05-10T18:59:29;5.93;;;3.25;;
17763;SDS011;22245;52.832;13.816;2023-05-10T19:02:52;8.57;;;3.88;;
17763;SDS011;22245;52.832;13.816;2023-05-10T19:06:14;7.22;;;3.60;;
17763;SDS011;22245;52.832;13.816;2023-05-10T19:09:36;9.10;;;3.95;;
17763;SDS011;22245;52.832;13.816;2023-05-10T19:12:57;7.63;;;3.55;;
17763;SDS011;22245;52.832;13.816;2023-05-10T19:16:19;5.88;;;3.00;;
17763;SDS011;22245;52.832;13.816;2023-05-10T19:19:44;5.97;;;3.65;;
17763;SDS011;22245;52.832;13.816;2023-05-10T19:23:07;7.78;;;4.53;;
17763;SDS011;22245;52.832;13.816;2023-05-10T19:26:29;12.70;;;5.72;;
17763;SDS011;22245;52.832;13.816;2023-05-10T19:29:51;10.50;;;4.30;;
17763;SDS011;22245;52.832;13.816;2023-05-10T19:33:14;8.90;;;4.80;;
17763;SDS011;22245;52.832;13.816;2023-05-10T19:36:38;7.15;;;3.60;;
17763;SDS011;22245;52.832;13.816;2023-05-10T19:40:00;7.28;;;3.55;;
17763;SDS011;22245;52.832;13.816;2023-05-10T19:43:21;9.57;;;3.58;;
17763;SDS011;22245;52.832;13.816;2023-05-10T19:46:42;4.53;;;3.42;;
17763;SDS011;22245;52.832;13.816;2023-05-10T19:50:05;5.43;;;3.22;;
17763;SDS011;22245;52.832;13.816;2023-05-10T19:53:28;11.23;;;3.28;;
17763;SDS011;22245;52.832;13.816;2023-05-10T19:56:51;8.45;;;4.50;;
17763;SDS011;22245;52.832;13.816;2023-05-10T20:00:13;5.50;;;3.65;;
17763;SDS011;22245;52.832;13.816;2023-05-10T20:03:35;5.32;;;3.13;;
17763;SDS011;22245;52.832;13.816;2023-05-10T20:06:58;6.53;;;3.88;;